»·PEaware :: N123AB L52-L88

N123AB :: L52-L88

FLIGHT INFORMATION

Flight Status: Arrived
Operator: Privately registered:
United States
More flights under this callsign
Pilot: Ryan S. (26521)
Aircraft: BEECH AIRCRAFT BARON
(BE58)
More flights by this aircraft type
Origin: L52 Oceano Co
United States
Destination: L88 New Cuyama
United States
More flights between these airports :: More routes between these airports
Route:
File this flight plan on PilotEdge
Remarks:
Altitude:
(Current/Filed)
7,500ft
Speed:
(Current/Filed)
160kts
Departed: 08-Oct-19 05:26 PM
Arrived: 08-Oct-19 06:06 PM
Distance/Time
Traveled:
47nm/0:40
Distance/Time
To Go:
Arrived

Flight Plot

Page will automatically refresh every two minutes.


Map Options




Map Legend


Flown Route
Filed Route
Departure Airport
Arrival Airport
Navaid (VOR, NDB)
Fix

Horizontal Profiles

Position Reports

Time Latitude Longitude Heading Altitude Ground
Speed
08-Oct-19 17:16 35.102275 -120.622530 211 17ft 0kts
08-Oct-19 17:17 35.102275 -120.622530 211 17ft 0kts
08-Oct-19 17:18 35.102270 -120.622533 211 17ft 0kts
08-Oct-19 17:19 35.102114 -120.622651 212 16ft 0kts
08-Oct-19 17:20 35.101945 -120.622787 213 16ft 1kts
08-Oct-19 17:21 35.101760 -120.622942 216 15ft 0kts
08-Oct-19 17:22 35.100443 -120.621165 123 17ft 23kts
08-Oct-19 17:23 35.099534 -120.619431 33 17ft 0kts
08-Oct-19 17:24 35.100200 -120.619800 303 17ft 19kts
08-Oct-19 17:25 35.105577 -120.635478 247 736ft 95kts
08-Oct-19 17:26 35.092471 -120.631228 97 1573ft 130kts
08-Oct-19 17:27 35.091910 -120.627179 95 1460ft 152kts
08-Oct-19 17:28 35.103405 -120.624442 32 15ft 0kts
08-Oct-19 17:29 35.103405 -120.624442 32 15ft 0kts
08-Oct-19 17:30 35.103633 -120.624774 279 15ft 6kts
08-Oct-19 17:31 35.103532 -120.625122 218 14ft 0kts
08-Oct-19 17:32 35.103236 -120.625321 173 14ft 7kts
08-Oct-19 17:33 35.097709 -120.614460 114 184ft 120kts
08-Oct-19 17:34 35.094660 -120.589753 85 930ft 141kts
08-Oct-19 17:35 35.094054 -120.560876 90 1706ft 151kts
08-Oct-19 17:36 35.093023 -120.529434 85 2359ft 160kts
08-Oct-19 17:37 35.096272 -120.492639 84 3163ft 160kts
08-Oct-19 17:38 35.095174 -120.458021 94 3800ft 164kts
08-Oct-19 17:39 35.092956 -120.424429 94 4397ft 164kts
08-Oct-19 17:40 35.088616 -120.391561 100 4955ft 163kts
08-Oct-19 17:41 35.082396 -120.359364 104 5907ft 141kts
08-Oct-19 17:42 35.074233 -120.332177 110 6593ft 144kts
08-Oct-19 17:43 35.065231 -120.303509 109 7443ft 134kts
08-Oct-19 17:44 35.056593 -120.271655 110 7630ft 167kts
08-Oct-19 17:45 35.048623 -120.236966 100 7742ft 179kts
08-Oct-19 17:46 35.041862 -120.198098 103 7517ft 192kts
08-Oct-19 17:47 35.032740 -120.158871 109 7395ft 195kts
08-Oct-19 17:48 35.020257 -120.120047 110 7488ft 186kts
08-Oct-19 17:49 35.007999 -120.081924 111 7555ft 185kts
08-Oct-19 17:50 34.997403 -120.043322 107 7495ft 191kts
08-Oct-19 17:51 34.990116 -120.004091 100 7495ft 192kts
08-Oct-19 17:52 34.982582 -119.965198 105 7499ft 186kts
08-Oct-19 17:53 34.974889 -119.931930 103 6538ft 164kts
08-Oct-19 17:54 34.969666 -119.900973 107 5594ft 147kts
08-Oct-19 17:55 34.964075 -119.872573 98 4080ft 141kts
08-Oct-19 17:56 34.959346 -119.845430 105 3389ft 132kts
08-Oct-19 17:57 34.955773 -119.819591 96 3035ft 108kts
08-Oct-19 17:58 34.951950 -119.796510 113 3151ft 118kts
08-Oct-19 17:59 34.947056 -119.767644 94 3767ft 149kts
08-Oct-19 18:00 34.940410 -119.730320 105 3792ft 175kts
08-Oct-19 18:01 34.933135 -119.693737 111 3331ft 160kts
08-Oct-19 18:02 34.923832 -119.669994 64 3013ft 100kts
08-Oct-19 18:03 34.935564 -119.674643 293 2389ft 96kts
08-Oct-19 18:04 34.940965 -119.688106 296 2165ft 45kts
08-Oct-19 18:05 34.942812 -119.690908 88 2156ft 16kts
08-Oct-19 18:06 34.942522 -119.690273 167 2157ft 0kts
08-Oct-19 18:07 34.942522 -119.690273 167 2157ft 0kts
08-Oct-19 18:08 34.942522 -119.690273 167 2157ft 0kts
08-Oct-19 18:09 34.942522 -119.690273 167 2157ft 0kts

Navigation Log

Ident Type
Flight plan parsing failed, navigation log unavailable